Time;durP1;ratioP1;P1;durP2;ratioP2;P2;SDS_P1;SDS_P2;PMS_P1;PMS_P2;Temp;Humidity;BMP_temperature;BMP_pressure;BME280_temperature;BME280_humidity;BME280_pressure;Samples;Min_cycle;Max_cycle;Signal;HPM_P1;HPM_P2
2021/12/08 00:01:10;;;;;;;3.95;1.05;;;;;;;24.37;31.29;99428.13;5047138;28;20028;-43
2021/12/08 00:03:39;;;;;;;2.88;0.90;;;;;;;24.34;31.06;99429.03;5046690;28;20059;-43
2021/12/08 00:06:08;;;;;;;2.70;1.35;;;;;;;24.25;31.43;99421.28;5047041;28;20032;-43
2021/12/08 00:08:37;;;;;;;1.88;0.80;;;;;;;24.27;31.33;99423.00;5029012;28;20448;-43
2021/12/08 00:13:54;;;;;;;2.05;0.85;;;;;;;24.16;31.61;99424.88;5039521;28;20029;-43
2021/12/08 00:16:23;;;;;;;2.00;1.08;;;;;;;24.22;31.43;99423.94;5046700;28;20496;-43
2021/12/08 00:18:51;;;;;;;2.83;0.90;;;;;;;24.06;31.44;99429.38;5046006;28;20398;-43
2021/12/08 00:21:24;;;;;;;2.15;1.20;;;;;;;24.09;31.64;99431.06;5046536;28;20132;-43
2021/12/08 00:23:53;;;;;;;1.80;0.93;;;;;;;24.03;31.88;99425.94;5046738;28;20490;-43
2021/12/08 00:26:21;;;;;;;6.78;1.67;;;;;;;24.19;31.54;99429.22;5046269;28;20087;-44
2021/12/08 00:28:50;;;;;;;4.95;1.92;;;;;;;24.19;31.69;99429.22;5028473;28;20036;-43
2021/12/08 00:31:18;;;;;;;3.67;1.88;;;;;;;24.22;31.16;99418.69;5046662;28;20592;-43
2021/12/08 00:33:47;;;;;;;5.60;2.20;;;;;;;24.23;31.26;99420.44;5046099;28;20116;-43
2021/12/08 00:36:18;;;;;;;3.17;1.60;;;;;;;24.15;31.50;99417.91;5028538;28;20025;-43
2021/12/08 00:38:46;;;;;;;3.95;1.60;;;;;;;24.12;31.71;99407.47;5028534;28;20525;-44
2021/12/08 00:41:16;;;;;;;4.00;1.75;;;;;;;24.08;31.63;99406.66;5046255;28;20032;-43
2021/12/08 00:43:44;;;;;;;3.95;1.58;;;;;;;24.14;31.36;99413.56;5046464;28;20033;-43
2021/12/08 00:46:13;;;;;;;4.45;1.75;;;;;;;24.14;31.31;99402.22;5046117;28;20560;-43
2021/12/08 00:48:48;;;;;;;3.20;1.70;;;;;;;24.13;31.45;99396.09;5046229;28;20523;-43
2021/12/08 00:51:17;;;;;;;4.05;1.63;;;;;;;24.15;31.67;99403.97;5046534;28;20616;-43
2021/12/08 00:53:47;;;;;;;3.45;1.45;;;;;;;24.15;31.58;99393.47;5045872;28;20111;-43
2021/12/08 00:56:16;;;;;;;3.05;1.73;;;;;;;24.21;31.34;99396.88;5045744;28;20037;-43
2021/12/08 00:58:44;;;;;;;2.20;1.27;;;;;;;24.14;31.67;99397.00;5045052;28;20025;-43
2021/12/08 01:01:13;;;;;;;2.55;1.40;;;;;;;24.16;31.43;99395.22;5045918;28;20032;-43
2021/12/08 01:03:42;;;;;;;4.25;1.63;;;;;;;24.12;31.35;99402.22;5045860;28;20079;-43
2021/12/08 01:06:11;;;;;;;4.22;1.60;;;;;;;24.14;31.35;99410.94;5046029;28;20122;-43
2021/12/08 01:08:40;;;;;;;2.55;1.25;;;;;;;24.14;31.50;99410.09;5045992;28;20032;-43
2021/12/08 01:11:12;;;;;;;3.67;1.35;;;;;;;23.97;31.88;99413.78;5045827;28;20039;-43
2021/12/08 01:13:41;;;;;;;1.83;0.98;;;;;;;24.06;31.86;99432.00;5045677;28;20028;-43
2021/12/08 01:16:10;;;;;;;2.97;1.10;;;;;;;24.14;31.33;99420.56;5045723;28;20537;-43
2021/12/08 01:18:38;;;;;;;3.17;1.15;;;;;;;24.18;31.77;99427.47;5045894;28;20485;-43
2021/12/08 01:21:08;;;;;;;3.10;1.30;;;;;;;24.16;31.65;99424.88;5027852;28;20128;-41
2021/12/08 01:23:37;;;;;;;5.32;1.55;;;;;;;24.17;31.35;99430.97;5045792;28;20036;-43
2021/12/08 01:26:07;;;;;;;3.17;1.50;;;;;;;24.14;31.70;99437.13;5045708;28;20039;-43
2021/12/08 01:28:37;;;;;;;2.78;1.25;;;;;;;24.16;31.29;99435.38;5045739;28;20090;-43
2021/12/08 01:31:05;;;;;;;4.05;1.20;;;;;;;24.22;31.60;99439.66;5045323;28;20025;-43
2021/12/08 01:33:36;;;;;;;2.40;1.25;;;;;;;24.19;31.70;99451.06;5045402;28;20053;-44
2021/12/08 01:36:06;;;;;;;3.10;1.25;;;;;;;24.20;31.21;99467.63;5045193;28;20063;-44
2021/12/08 01:38:35;;;;;;;1.77;0.70;;;;;;;24.28;31.10;99492.00;5044777;28;20025;-43
2021/12/08 01:41:05;;;;;;;2.75;1.00;;;;;;;24.18;31.19;99479.88;5045123;28;20064;-43
2021/12/08 01:45:57;;;;;;;2.88;1.20;;;;;;;24.21;31.38;99479.84;5045061;28;20398;-43
2021/12/08 01:46:24;;;;;;;2.25;1.10;;;;;;;24.21;31.26;99462.41;5044684;28;20248;-44
2021/12/08 01:48:52;;;;;;;1.92;0.82;;;;;;;24.26;31.43;99463.19;5045035;28;20103;-43
2021/12/08 01:51:19;;;;;;;2.53;0.90;;;;;;;24.14;31.25;99457.25;5044856;28;20453;-43
2021/12/08 01:53:53;;;;;;;3.17;1.42;;;;;;;24.22;31.36;99444.91;5026184;28;20112;-43
2021/12/08 01:56:23;;;;;;;2.40;0.80;;;;;;;24.19;31.50;99442.31;5044056;28;20028;-42
2021/12/08 01:58:53;;;;;;;3.60;1.25;;;;;;;24.33;30.98;99437.75;5044060;28;20111;-43
2021/12/08 02:01:24;;;;;;;3.38;1.35;;;;;;;24.32;31.35;99416.84;5044877;28;20047;-41
2021/12/08 02:03:53;;;;;;;1.30;0.65;;;;;;;24.27;31.11;99411.66;5044540;28;20044;-42
2021/12/08 02:06:22;;;;;;;2.70;1.10;;;;;;;24.21;31.58;99432.69;5026656;28;20033;-43
2021/12/08 02:08:52;;;;;;;1.88;0.80;;;;;;;24.13;31.72;99445.88;5044585;28;20744;-42
2021/12/08 02:11:22;;;;;;;3.95;1.25;;;;;;;24.24;31.33;99446.59;5044481;28;20033;-43
2021/12/08 02:13:54;;;;;;;2.67;1.30;;;;;;;24.24;30.96;99445.75;5027092;28;20029;-43
2021/12/08 02:16:21;;;;;;;2.50;1.27;;;;;;;24.24;31.25;99449.22;5044435;28;20061;-43
2021/12/08 02:18:52;;;;;;;3.65;1.38;;;;;;;24.15;31.60;99449.34;5025920;28;20550;-42
2021/12/08 02:21:27;;;;;;;2.75;1.30;;;;;;;24.11;31.74;99452.88;5044280;28;20064;-43
2021/12/08 02:23:59;;;;;;;3.10;1.52;;;;;;;24.19;31.34;99451.06;5044586;28;20128;-42
2021/12/08 02:26:28;;;;;;;3.50;1.25;;;;;;;24.15;31.35;99448.50;5044429;28;20485;-42
2021/12/08 02:28:59;;;;;;;3.45;1.42;;;;;;;24.18;31.41;99458.91;5044401;28;20079;-42
2021/12/08 02:31:56;;;;;;;2.03;0.88;;;;;;;24.19;31.50;99456.31;5044599;28;20029;-42
2021/12/08 02:48:14;;;;;;;2.47;0.73;;;;;;;24.15;31.56;99438.03;5039685;28;20048;-42
2021/12/08 02:50:44;;;;;;;1.50;0.80;;;;;;;24.15;31.40;99436.25;5043796;28;20065;-43
2021/12/08 02:53:14;;;;;;;2.15;0.93;;;;;;;24.19;31.50;99434.47;5043889;28;20236;-42
2021/12/08 02:55:44;;;;;;;1.95;0.90;;;;;;;24.09;31.27;99434.59;5044222;28;20120;-42
2021/12/08 02:58:13;;;;;;;2.22;1.00;;;;;;;24.08;31.43;99426.72;5043324;28;20509;-42
2021/12/08 03:00:45;;;;;;;2.85;1.13;;;;;;;24.07;31.54;99431.09;5043519;28;20025;-42
2021/12/08 03:03:14;;;;;;;3.80;1.60;;;;;;;24.08;31.68;99431.97;5026204;28;20029;-42
2021/12/08 03:05:43;;;;;;;3.40;1.70;;;;;;;24.05;31.18;99417.16;5043673;28;20122;-42
2021/12/08 03:08:13;;;;;;;4.30;1.60;;;;;;;24.11;31.48;99424.06;5043550;28;20047;-42
2021/12/08 03:10:43;;;;;;;4.65;1.83;;;;;;;23.98;31.77;99420.75;5043928;28;20029;-42
2021/12/08 03:13:13;;;;;;;3.20;1.52;;;;;;;24.12;31.05;99413.59;5043621;28;20025;-42
2021/12/08 03:15:42;;;;;;;2.60;1.35;;;;;;;24.13;31.23;99414.44;5025466;28;20033;-42
2021/12/08 03:18:10;;;;;;;2.65;1.60;;;;;;;24.04;31.33;99423.28;5043556;28;20032;-42
2021/12/08 03:20:40;;;;;;;2.63;1.38;;;;;;;24.00;31.81;99439.06;5043548;28;20036;-42
2021/12/08 03:23:23;;;;;;;2.30;1.40;;;;;;;24.03;31.59;99454.75;5043589;28;20041;-42
2021/12/08 03:25:55;;;;;;;3.15;1.40;;;;;;;24.03;31.54;99466.06;5043229;28;20060;-42
2021/12/08 03:28:29;;;;;;;2.47;1.25;;;;;;;24.11;31.50;99489.56;5043337;28;20294;-42
2021/12/08 03:31:04;;;;;;;2.28;1.25;;;;;;;24.00;31.59;99494.91;5042725;28;20479;-43
2021/12/08 03:33:32;;;;;;;;;;;;;;;24.12;31.29;99507.03;5043620;28;20133;-43
2021/12/08 03:36:01;;;;;;;5.00;2.03;;;;;;;24.10;31.54;99507.06;5025277;28;19923;-42
2021/12/08 03:38:31;;;;;;;2.00;1.15;;;;;;;24.04;31.31;99504.47;5025528;28;20038;-43
2021/12/08 03:41:00;;;;;;;2.00;1.00;;;;;;;24.00;31.64;99497.53;5025251;28;20457;-42
2021/12/08 03:43:29;;;;;;;2.63;1.20;;;;;;;23.96;31.86;99490.59;5043231;28;20086;-42
2021/12/08 03:45:58;;;;;;;2.10;0.90;;;;;;;24.00;31.61;99486.19;5043476;28;20036;-42
2021/12/08 03:48:31;;;;;;;4.47;2.13;;;;;;;23.95;31.53;99480.97;5043310;28;20044;-42
2021/12/08 03:51:00;;;;;;;1.55;0.85;;;;;;;24.04;31.55;99466.97;5043246;28;20025;-41
2021/12/08 03:53:29;;;;;;;2.75;1.00;;;;;;;24.01;31.46;99477.47;5043292;28;20033;-42
2021/12/08 03:55:57;;;;;;;1.70;0.88;;;;;;;23.99;31.43;99467.00;5043060;28;20037;-42
2021/12/08 03:58:26;;;;;;;2.20;1.00;;;;;;;23.94;31.74;99466.16;5043105;28;20025;-43
2021/12/08 04:00:58;;;;;;;3.15;1.00;;;;;;;24.01;31.24;99465.22;5043047;28;20082;-42
2021/12/08 04:03:30;;;;;;;1.75;0.90;;;;;;;24.06;31.08;99460.81;5043048;28;20021;-43
2021/12/08 04:06:02;;;;;;;1.88;0.95;;;;;;;24.04;31.40;99473.06;5042856;28;20036;-43
2021/12/08 04:08:40;;;;;;;1.83;0.90;;;;;;;24.14;31.03;99467.72;5043279;28;21175;-43
2021/12/08 04:11:11;;;;;;;1.92;1.00;;;;;;;24.07;31.37;99478.25;5043043;28;20052;-43
2021/12/08 04:13:53;;;;;;;1.42;0.70;;;;;;;24.01;31.09;99474.84;5043331;28;20500;-43
2021/12/08 04:16:26;;;;;;;1.67;0.80;;;;;;;23.94;31.74;99469.63;5042461;28;20033;-43
2021/12/08 04:18:57;;;;;;;1.05;0.50;;;;;;;23.97;31.68;99480.09;5043057;28;20021;-43
2021/12/08 04:21:26;;;;;;;1.67;0.60;;;;;;;23.93;31.56;99474.91;5042563;28;20051;-43
2021/12/08 04:23:55;;;;;;;1.77;1.02;;;;;;;23.97;31.58;99471.41;5042408;28;20470;-44
2021/12/08 04:26:38;;;;;;;2.58;0.95;;;;;;;23.97;31.30;99472.25;5042163;28;20033;-43
2021/12/08 04:29:08;;;;;;;1.65;0.75;;;;;;;24.02;31.27;99482.66;5042479;28;20086;-43
2021/12/08 04:31:38;;;;;;;1.48;0.73;;;;;;;24.05;31.29;99477.41;5042998;28;20102;-43
2021/12/08 04:34:16;;;;;;;1.83;0.60;;;;;;;24.08;31.43;99464.28;5042917;28;20032;-46
2021/12/08 04:36:49;;;;;;;2.78;0.90;;;;;;;24.08;30.93;99461.66;5042767;28;20029;-43
2021/12/08 04:39:26;;;;;;;2.47;0.93;;;;;;;24.01;31.07;99459.97;5042402;28;20057;-43
2021/12/08 04:42:01;;;;;;;1.20;0.70;;;;;;;23.94;31.32;99472.25;5043702;28;20029;-44
2021/12/08 04:44:37;;;;;;;2.30;0.80;;;;;;;23.93;31.20;99453.94;5046079;28;20024;-43
2021/12/08 05:01:11;;;;;;;4.15;1.80;;;;;;;24.10;30.95;99459.91;5031294;28;20041;-44
2021/12/08 05:06:42;;;;;;;2.95;1.27;;;;;;;24.09;31.03;99471.25;5038995;28;20069;-46
2021/12/08 05:09:15;;;;;;;5.00;1.57;;;;;;;24.00;30.91;99467.88;5045327;28;20465;-43
2021/12/08 05:11:47;;;;;;;2.70;1.20;;;;;;;24.02;31.33;99480.06;5045455;28;20277;-44
2021/12/08 05:14:31;;;;;;;4.18;1.23;;;;;;;23.97;31.33;99471.41;5046042;28;20033;-46
2021/12/08 05:17:08;;;;;;;4.55;1.48;;;;;;;23.99;30.92;99474.00;5045459;28;20032;-43
2021/12/08 05:19:36;;;;;;;4.82;1.50;;;;;;;23.93;31.30;99485.38;5045486;28;20061;-45
2021/12/08 05:22:13;;;;;;;3.30;1.30;;;;;;;23.91;31.32;99474.88;5045448;28;20045;-43
2021/12/08 05:24:45;;;;;;;5.18;1.40;;;;;;;23.94;31.24;99481.88;5045451;28;20098;-43
2021/12/08 05:27:25;;;;;;;3.53;1.52;;;;;;;23.91;31.42;99492.38;5027866;28;20496;-43
2021/12/08 05:29:59;;;;;;;2.60;1.23;;;;;;;23.85;31.27;99485.44;5046066;28;20064;-43
2021/12/08 05:32:28;;;;;;;3.35;1.52;;;;;;;24.01;30.85;99493.19;5045502;28;20068;-43
2021/12/08 05:34:57;;;;;;;3.03;1.13;;;;;;;24.00;31.14;99501.91;5045258;28;20106;-43
2021/12/08 05:37:29;;;;;;;4.53;1.13;;;;;;;24.01;31.27;99504.50;5045675;28;20023;-44
2021/12/08 05:39:58;;;;;;;3.78;1.25;;;;;;;24.00;31.34;99510.63;5045415;28;20065;-43
2021/12/08 05:42:32;;;;;;;3.58;1.27;;;;;;;23.92;31.56;99513.28;5045066;28;20044;-44
2021/12/08 05:45:03;;;;;;;2.63;0.98;;;;;;;23.99;31.30;99558.69;5045141;28;20055;-43
2021/12/08 05:47:32;;;;;;;2.35;1.00;;;;;;;23.97;31.18;99569.16;5027378;28;20033;-43
2021/12/08 05:50:01;;;;;;;3.20;1.02;;;;;;;24.06;30.89;99562.13;5011043;28;20098;-44
2021/12/08 05:52:29;;;;;;;3.13;1.00;;;;;;;24.03;30.75;99560.38;5044850;28;20026;-43
2021/12/08 05:54:58;;;;;;;2.40;0.98;;;;;;;24.15;30.84;99559.41;5043771;28;20143;-43
2021/12/08 05:57:32;;;;;;;2.60;1.00;;;;;;;24.16;30.82;99568.13;5027331;28;20039;-43
2021/12/08 06:00:00;;;;;;;3.15;1.00;;;;;;;24.11;31.03;99583.88;5090896;22;20088;-43
2021/12/08 06:02:33;;;;;;;2.40;0.88;;;;;;;24.07;31.14;99593.53;5031590;28;20029;-43
2021/12/08 06:05:02;;;;;;;2.22;0.70;;;;;;;24.06;30.79;99604.88;5031857;28;20029;-43
2021/12/08 06:07:30;;;;;;;2.03;0.73;;;;;;;24.02;30.86;99591.84;5019516;28;20086;-43
2021/12/08 06:10:03;;;;;;;1.15;0.65;;;;;;;23.97;31.07;99578.78;5037032;28;20524;-43
2021/12/08 06:12:32;;;;;;;2.03;0.82;;;;;;;23.89;31.16;99581.44;5036735;28;20029;-43
2021/12/08 06:15:01;;;;;;;2.45;0.80;;;;;;;23.96;31.08;99571.78;5009070;28;20107;-43
2021/12/08 06:17:31;;;;;;;2.45;0.95;;;;;;;23.89;31.05;99563.13;5036500;28;20024;-42
2021/12/08 06:20:00;;;;;;;2.92;0.80;;;;;;;23.92;31.26;99554.34;5036483;28;20509;-44
2021/12/08 06:22:30;;;;;;;2.20;0.75;;;;;;;23.99;31.19;99555.19;5018292;28;20036;-43
2021/12/08 06:24:59;;;;;;;1.88;0.90;;;;;;;24.01;31.16;99541.19;5031425;28;20022;-44
2021/12/08 06:27:28;;;;;;;2.42;0.88;;;;;;;23.92;31.11;99547.34;5019615;28;20033;-44
2021/12/08 06:29:57;;;;;;;1.42;0.47;;;;;;;24.00;30.83;99549.06;5030838;28;20136;-43
2021/12/08 06:32:25;;;;;;;2.53;1.10;;;;;;;23.91;31.20;99548.22;5031130;28;20036;-43
2021/12/08 06:34:57;;;;;;;2.17;0.68;;;;;;;23.78;31.41;99539.63;5036423;28;20066;-44
2021/12/08 06:37:29;;;;;;;1.90;0.60;;;;;;;23.82;31.35;99540.47;5030109;28;20573;-43
2021/12/08 06:40:23;;;;;;;2.08;0.70;;;;;;;23.91;31.28;99547.38;5036071;28;20346;-44
2021/12/08 06:42:53;;;;;;;1.40;0.60;;;;;;;23.96;30.95;99556.06;5020983;28;20399;-44
2021/12/08 06:45:32;;;;;;;3.08;0.82;;;;;;;23.96;31.23;99561.31;5030887;28;20478;-44
2021/12/08 06:48:05;;;;;;;1.98;0.70;;;;;;;23.99;31.08;99558.69;5037349;28;20029;-44
2021/12/08 06:50:39;;;;;;;2.67;0.98;;;;;;;23.95;30.88;99555.19;5030005;28;20040;-46
2021/12/08 06:53:07;;;;;;;1.08;0.40;;;;;;;23.88;31.20;99560.50;5030066;28;20057;-43
2021/12/08 06:55:57;;;;;;;1.85;0.60;;;;;;;23.95;31.23;99567.41;5018109;28;20033;-43
2021/12/08 06:58:29;;;;;;;1.20;0.50;;;;;;;23.89;31.20;99572.69;5030156;28;20465;-43
2021/12/08 07:01:13;;;;;;;1.00;0.57;;;;;;;23.94;31.35;99584.00;5020309;28;20042;-43
2021/12/08 07:04:02;;;;;;;1.95;0.50;;;;;;;23.92;31.08;99589.25;5015243;28;20026;-44
2021/12/08 07:09:00;;;;;;;2.95;1.10;;;;;;;24.09;31.19;99596.13;5030768;28;20431;-43
2021/12/08 07:11:29;;;;;;;2.05;0.95;;;;;;;24.06;31.26;99601.41;5030062;28;20032;-42
2021/12/08 07:13:58;;;;;;;2.88;1.40;;;;;;;24.02;31.27;99605.78;5035044;28;20039;-43
2021/12/08 07:16:31;;;;;;;6.20;1.55;;;;;;;24.05;31.29;99615.41;5032563;28;20033;-42
2021/12/08 07:19:09;;;;;;;3.83;1.60;;;;;;;23.99;31.12;99616.31;5035178;28;20032;-42
2021/12/08 07:21:43;;;;;;;2.33;1.10;;;;;;;24.11;31.04;99620.56;5033392;28;20483;-42
2021/12/08 07:24:18;;;;;;;3.85;1.50;;;;;;;24.04;30.96;99632.00;5032582;28;20503;-42
2021/12/08 07:26:49;;;;;;;3.67;1.10;;;;;;;24.01;31.01;99638.09;5031848;28;20092;-42
2021/12/08 07:29:24;;;;;;;3.05;1.40;;;;;;;23.96;31.37;99634.66;5024428;28;20041;-42
2021/12/08 07:31:53;;;;;;;;;;;;;;;24.18;31.14;99637.97;5030735;28;20052;-42
2021/12/08 07:34:23;;;;;;;2.47;1.10;;;;;;;24.09;31.21;99638.94;5029976;28;19932;-42
2021/12/08 07:36:55;;;;;;;2.78;1.10;;;;;;;24.00;31.54;99638.97;5029821;28;20383;-42
2021/12/08 07:39:27;;;;;;;3.20;1.20;;;;;;;24.15;30.82;99640.63;5014038;28;20037;-42
2021/12/08 07:42:08;;;;;;;3.03;0.90;;;;;;;24.10;31.30;99642.41;5035651;28;20110;-41
2021/12/08 07:44:36;;;;;;;1.17;0.70;;;;;;;24.00;31.35;99649.47;5035389;28;20124;-42
2021/12/08 07:47:09;;;;;;;2.55;0.93;;;;;;;24.09;31.45;99649.41;5030998;28;20044;-42
2021/12/08 07:49:42;;;;;;;4.20;0.77;;;;;;;24.12;31.30;99649.38;5029755;28;20042;-42
2021/12/08 07:52:15;;;;;;;2.35;0.77;;;;;;;24.22;31.31;99654.53;5029853;28;20029;-42
2021/12/08 07:54:45;;;;;;;1.85;1.10;;;;;;;24.22;30.94;99658.03;5030059;28;20033;-42
2021/12/08 07:57:19;;;;;;;2.85;0.98;;;;;;;24.12;31.11;99659.88;5030073;28;20454;-42
2021/12/08 07:59:51;;;;;;;3.97;0.80;;;;;;;24.12;31.14;99659.88;5033234;28;20049;-42
2021/12/08 08:02:19;;;;;;;1.77;0.77;;;;;;;23.94;31.34;99663.44;5033089;28;20458;-42
2021/12/08 08:04:51;;;;;;;2.50;0.80;;;;;;;24.10;31.36;99668.59;5018082;28;20029;-43
2021/12/08 08:07:21;;;;;;;1.60;0.60;;;;;;;24.05;31.08;99666.03;5032593;28;20056;-43
2021/12/08 08:09:59;;;;;;;2.17;0.90;;;;;;;24.22;31.15;99671.13;5026155;28;20076;-42
2021/12/08 08:12:31;;;;;;;1.35;0.60;;;;;;;24.22;31.15;99668.53;5025521;28;20380;-42
2021/12/08 08:15:03;;;;;;;4.63;0.52;;;;;;;24.04;31.45;99673.91;5018105;28;20061;-43
2021/12/08 08:17:39;;;;;;;0.98;0.43;;;;;;;24.08;31.22;99676.47;5032560;28;20083;-43
2021/12/08 08:20:17;;;;;;;0.70;0.40;;;;;;;24.04;31.00;99677.38;5035066;28;20025;-43
2021/12/08 08:22:47;;;;;;;0.85;0.47;;;;;;;24.10;31.26;99684.31;5033462;28;20367;-43
2021/12/08 08:25:20;;;;;;;1.10;0.60;;;;;;;23.99;31.31;99691.41;5033705;28;20061;-42
2021/12/08 08:27:50;;;;;;;0.88;0.50;;;;;;;24.04;31.18;99702.72;5033622;28;20111;-45
2021/12/08 08:30:28;;;;;;;4.22;0.80;;;;;;;24.13;30.92;99702.63;5033711;28;20103;-42
2021/12/08 08:32:58;;;;;;;1.35;0.55;;;;;;;24.17;30.73;99714.84;5037404;28;20032;-43
2021/12/08 08:35:31;;;;;;;0.90;0.40;;;;;;;24.09;31.16;99724.50;5037165;28;20115;-43
2021/12/08 08:38:02;;;;;;;1.40;0.55;;;;;;;23.99;31.03;99735.94;5037048;28;20031;-44
2021/12/08 08:40:37;;;;;;;1.35;0.50;;;;;;;23.95;31.24;99741.16;5036569;28;20021;-43
2021/12/08 08:43:05;;;;;;;2.38;0.57;;;;;;;24.00;31.33;99761.25;5029450;28;20044;-43
2021/12/08 08:45:47;;;;;;;0.88;0.40;;;;;;;24.03;31.05;99784.81;5032862;28;20029;-43
2021/12/08 08:48:22;;;;;;;2.15;0.50;;;;;;;24.22;30.71;99793.41;5032959;28;20058;-43
2021/12/08 08:51:04;;;;;;;3.47;0.70;;;;;;;24.31;30.78;99805.59;5039541;28;20461;-43
2021/12/08 08:53:35;;;;;;;1.40;0.50;;;;;;;24.30;30.66;99804.72;5038117;28;20036;-43
2021/12/08 08:56:10;;;;;;;1.17;0.50;;;;;;;24.12;31.29;99797.84;5037847;28;20025;-43
2021/12/08 08:58:42;;;;;;;0.75;0.55;;;;;;;24.23;30.81;99803.03;5024505;28;20467;-43
2021/12/08 09:01:16;;;;;;;2.53;0.75;;;;;;;24.33;30.71;99822.19;5030470;28;20400;-46
2021/12/08 09:03:50;;;;;;;2.28;0.63;;;;;;;24.25;31.00;99830.09;5032641;28;21128;-44
2021/12/08 09:06:24;;;;;;;1.00;0.52;;;;;;;24.26;31.18;99821.34;5032940;28;20037;-43
2021/12/08 09:08:53;;;;;;;1.50;0.70;;;;;;;24.34;30.86;99813.44;5032993;28;20029;-43
2021/12/08 09:11:26;;;;;;;3.28;0.60;;;;;;;24.34;30.61;99790.69;5023369;28;20571;-43
2021/12/08 09:14:02;;;;;;;0.75;0.47;;;;;;;24.32;30.68;99782.00;5032759;28;20033;-42
2021/12/08 09:16:35;;;;;;;1.52;0.63;;;;;;;24.32;31.07;99781.13;5033934;28;20072;-43
2021/12/08 09:19:10;;;;;;;1.48;0.55;;;;;;;24.37;30.86;99781.97;5022485;28;20055;-43
2021/12/08 09:21:42;;;;;;;1.17;0.50;;;;;;;24.21;30.86;99791.66;5040372;28;20057;-41
2021/12/08 09:24:16;;;;;;;1.90;0.50;;;;;;;24.26;30.80;99782.03;5031651;28;20091;-42
2021/12/08 09:26:50;;;;;;;5.03;1.13;;;;;;;24.27;31.12;99773.28;5032562;28;20045;-42
2021/12/08 09:29:25;;;;;;;3.30;1.42;;;;;;;24.34;30.71;99767.13;5031049;28;20214;-42
2021/12/08 09:31:58;;;;;;;10.02;1.65;;;;;;;24.22;31.34;99765.47;5032716;28;20036;-42
2021/12/08 09:34:32;;;;;;;2.38;1.20;;;;;;;24.32;30.78;99763.66;5036074;28;20551;-42
2021/12/08 09:37:05;;;;;;;4.97;0.97;;;;;;;24.43;30.65;99764.44;5035441;28;20517;-42
2021/12/08 09:39:46;;;;;;;4.95;1.45;;;;;;;24.37;30.95;99756.59;5034730;28;20040;-41
2021/12/08 09:42:23;;;;;;;5.40;1.63;;;;;;;24.41;30.76;99763.56;5033047;28;20029;-43
2021/12/08 09:44:56;;;;;;;4.05;1.10;;;;;;;24.39;30.68;99767.09;5032459;28;20037;-44
2021/12/08 09:47:29;;;;;;;1.83;1.00;;;;;;;24.43;30.50;99777.53;5032026;28;20072;-42
2021/12/08 09:50:00;;;;;;;2.15;1.00;;;;;;;24.43;30.74;99782.78;5021121;28;20022;-43
2021/12/08 09:52:30;;;;;;;5.95;0.85;;;;;;;24.48;30.36;99781.88;5033734;28;20032;-42
2021/12/08 09:55:00;;;;;;;2.13;1.05;;;;;;;24.37;30.59;99787.22;5019311;28;20025;-43
2021/12/08 09:57:29;;;;;;;1.70;0.90;;;;;;;24.34;30.73;99800.34;5037336;28;20017;-43
2021/12/08 09:59:59;;;;;;;2.67;0.85;;;;;;;24.40;30.90;99800.31;5030010;28;20053;-44
2021/12/08 10:02:33;;;;;;;3.88;1.00;;;;;;;24.46;30.62;99808.09;5031014;28;20064;-43
2021/12/08 10:05:12;;;;;;;3.03;0.88;;;;;;;24.47;30.47;99808.97;5030487;28;20029;-44
2021/12/08 10:07:42;;;;;;;1.27;0.70;;;;;;;24.49;30.39;99825.56;5031882;28;20041;-44
2021/12/08 10:10:14;;;;;;;1.10;0.70;;;;;;;24.45;30.43;99826.47;5031793;28;20032;-43
2021/12/08 10:12:44;;;;;;;1.17;0.55;;;;;;;24.52;30.52;99841.25;5035799;28;20124;-43
2021/12/08 10:15:16;;;;;;;1.75;0.60;;;;;;;24.55;30.45;99862.22;5035030;28;20030;-43
2021/12/08 10:17:45;;;;;;;1.52;0.70;;;;;;;24.52;30.51;99878.84;5022747;28;20033;-44
2021/12/08 10:20:25;;;;;;;0.93;0.60;;;;;;;24.56;30.42;99890.19;5034447;28;20030;-43
2021/12/08 10:23:12;;;;;;;1.83;0.68;;;;;;;24.60;30.44;99897.16;5022158;28;20156;-42
2021/12/08 10:25:46;;;;;;;1.20;0.70;;;;;;;24.54;30.79;99895.44;5020444;28;20041;-44
2021/12/08 10:28:21;;;;;;;1.97;0.63;;;;;;;24.60;30.69;99893.66;5036442;28;20470;-43
2021/12/08 10:30:57;;;;;;;0.88;0.32;;;;;;;24.56;30.38;99882.31;5036206;28;20300;-43
2021/12/08 10:36:46;;;;;;;1.55;0.50;;;;;;;24.63;30.56;99876.16;5001821;28;20491;-42
2021/12/08 10:39:18;;;;;;;2.30;0.80;;;;;;;24.58;30.52;99881.41;5030431;28;20402;-43
2021/12/08 10:41:48;;;;;;;2.25;0.55;;;;;;;24.57;30.40;99882.28;5031292;28;20021;-44
2021/12/08 10:44:23;;;;;;;2.22;0.63;;;;;;;24.56;30.87;99884.94;5034872;28;20033;-43
2021/12/08 10:46:56;;;;;;;5.10;0.70;;;;;;;24.61;30.67;99898.91;5033419;28;20131;-43
2021/12/08 10:54:50;;;;;;;2.22;0.70;;;;;;;24.50;30.40;99911.19;5026636;28;20045;-43
2021/12/08 10:57:38;;;;;;;1.17;0.50;;;;;;;24.56;30.49;99914.66;5018942;28;20029;-43
2021/12/08 11:00:37;;;;;;;1.13;0.50;;;;;;;24.63;30.41;99920.75;5033872;28;20084;-44
2021/12/08 11:03:09;;;;;;;2.38;0.88;;;;;;;24.66;30.67;99925.09;5036333;28;20419;-43
2021/12/08 11:05:46;;;;;;;1.48;0.50;;;;;;;24.64;30.36;99924.22;5029305;28;20033;-43
2021/12/08 11:08:18;;;;;;;1.17;0.50;;;;;;;24.58;30.86;99922.50;5028762;28;20033;-43
2021/12/08 11:10:47;;;;;;;0.77;0.45;;;;;;;24.62;30.46;99923.34;5029956;28;20033;-43
2021/12/08 11:13:19;;;;;;;1.60;0.40;;;;;;;24.71;30.35;99920.72;5030696;28;20079;-44
2021/12/08 11:15:49;;;;;;;0.88;0.47;;;;;;;24.66;30.50;99923.31;5034614;28;20136;-44
2021/12/08 11:18:22;;;;;;;1.77;0.63;;;;;;;24.63;30.36;99920.75;5034132;28;20099;-43
2021/12/08 11:20:51;;;;;;;1.00;0.32;;;;;;;24.70;30.42;99926.84;5033683;28;20057;-43
2021/12/08 11:23:38;;;;;;;1.55;0.47;;;;;;;24.53;30.55;99926.91;5033825;28;20031;-43
2021/12/08 11:26:28;;;;;;;1.23;0.40;;;;;;;24.71;30.41;99928.59;5031734;28;20033;-47
2021/12/08 11:29:00;;;;;;;1.15;0.45;;;;;;;24.68;30.41;99939.06;5022422;28;20041;-42
2021/12/08 11:31:32;;;;;;;1.92;0.63;;;;;;;24.67;30.43;99930.31;5030306;28;20502;-43
2021/12/08 11:34:02;;;;;;;1.40;0.60;;;;;;;24.67;30.65;99937.31;5018686;28;20163;-43
2021/12/08 11:36:33;;;;;;;1.17;0.60;;;;;;;24.71;30.28;99937.31;5034262;28;20029;-44
2021/12/08 11:39:08;;;;;;;1.45;0.30;;;;;;;24.63;30.62;99931.22;5033963;28;20116;-41
2021/12/08 11:41:41;;;;;;;1.95;0.60;;;;;;;24.65;30.73;99933.81;5033388;28;20030;-45
2021/12/08 11:44:13;;;;;;;1.65;0.32;;;;;;;24.66;30.40;99939.06;5032870;28;20022;-43
2021/12/08 11:46:45;;;;;;;3.35;0.50;;;;;;;24.48;30.53;99926.94;5025774;28;20025;-43
2021/12/08 11:49:13;;;;;;;4.15;0.77;;;;;;;24.53;30.62;99926.91;5033251;28;20738;-43
2021/12/08 11:51:45;;;;;;;1.75;0.45;;;;;;;24.64;30.47;99932.09;5025231;28;20148;-42
2021/12/08 11:54:33;;;;;;;2.13;0.57;;;;;;;24.69;30.57;99927.69;5035377;28;20048;-42
2021/12/08 11:57:16;;;;;;;1.80;0.68;;;;;;;24.75;30.53;99943.41;5033805;28;20048;-42
2021/12/08 11:59:50;;;;;;;1.80;0.70;;;;;;;24.76;30.50;99945.16;5031925;28;20053;-43
2021/12/08 12:02:21;;;;;;;1.17;0.50;;;;;;;24.72;30.25;99939.06;5022434;28;20025;-42
2021/12/08 12:04:49;;;;;;;3.08;0.50;;;;;;;24.62;30.79;99947.84;5033404;28;20040;-42
2021/12/08 12:07:19;;;;;;;1.05;0.50;;;;;;;24.68;30.63;99949.56;5033387;28;20029;-42
2021/12/08 12:09:48;;;;;;;1.42;0.63;;;;;;;24.66;30.76;99965.28;5033728;28;20025;-42
2021/12/08 12:12:18;;;;;;;2.88;0.90;;;;;;;24.60;31.05;99970.56;5033473;28;20528;-43
2021/12/08 12:14:47;;;;;;;1.00;0.60;;;;;;;24.65;31.05;99984.53;5032954;28;20087;-42
2021/12/08 12:17:15;;;;;;;2.40;0.82;;;;;;;24.60;30.73;99960.09;5037633;28;20041;-43
2021/12/08 12:20:03;;;;;;;3.33;1.35;;;;;;;24.71;30.93;99966.16;5037405;28;20598;-44
2021/12/08 12:22:38;;;;;;;2.65;1.50;;;;;;;24.72;31.04;99960.03;5026544;28;20083;-42
2021/12/08 12:25:34;;;;;;;3.85;1.73;;;;;;;24.71;30.72;99953.06;5034278;28;20021;-43
2021/12/08 12:28:25;;;;;;;2.40;1.20;;;;;;;24.73;31.02;99940.81;5027504;28;20091;-43
2021/12/08 12:31:17;;;;;;;2.35;1.25;;;;;;;24.76;30.94;99928.56;5034531;28;20603;-43
2021/12/08 12:33:47;;;;;;;2.88;1.60;;;;;;;24.75;30.95;99919.78;5011858;28;20068;-43
2021/12/08 12:36:31;;;;;;;2.10;1.17;;;;;;;24.75;30.95;99919.78;5033842;28;20028;-45
2021/12/08 12:39:23;;;;;;;1.73;1.08;;;;;;;24.82;30.74;99918.03;5032547;28;20037;-43
2021/12/08 12:42:13;;;;;;;2.00;1.10;;;;;;;24.77;30.66;99919.81;5036351;28;20099;-43
2021/12/08 12:44:45;;;;;;;2.88;1.25;;;;;;;24.63;30.74;99931.22;5036832;28;20036;-42